sensor_id;sensor_type;location;lat;lon;timestamp;P1;durP1;ratioP1;P2;durP2;ratioP2
71187;SDS011;58893;53.130;8.158;2023-01-31T00:01:13;9.50;;;2.10;;
71187;SDS011;58893;53.130;8.158;2023-01-31T00:03:41;5.97;;;2.27;;
71187;SDS011;58893;53.130;8.158;2023-01-31T00:06:11;13.00;;;1.97;;
71187;SDS011;58893;53.130;8.158;2023-01-31T00:08:37;11.43;;;2.00;;
71187;SDS011;58893;53.130;8.158;2023-01-31T00:11:03;23.90;;;2.17;;
71187;SDS011;58893;53.130;8.158;2023-01-31T00:13:29;9.80;;;2.30;;
71187;SDS011;58893;53.130;8.158;2023-01-31T00:15:55;12.77;;;1.90;;
71187;SDS011;58893;53.130;8.158;2023-01-31T00:18:21;5.27;;;1.37;;
71187;SDS011;58893;53.130;8.158;2023-01-31T00:20:47;13.47;;;2.10;;
71187;SDS011;58893;53.130;8.158;2023-01-31T00:23:12;21.30;;;2.50;;
71187;SDS011;58893;53.130;8.158;2023-01-31T00:25:38;25.00;;;2.57;;
71187;SDS011;58893;53.130;8.158;2023-01-31T00:28:04;9.40;;;1.93;;
71187;SDS011;58893;53.130;8.158;2023-01-31T00:30:29;16.13;;;2.10;;
71187;SDS011;58893;53.130;8.158;2023-01-31T00:32:55;11.70;;;2.00;;
71187;SDS011;58893;53.130;8.158;2023-01-31T00:35:20;9.70;;;1.97;;
71187;SDS011;58893;53.130;8.158;2023-01-31T00:37:46;13.70;;;1.73;;
71187;SDS011;58893;53.130;8.158;2023-01-31T00:40:12;12.40;;;1.97;;
71187;SDS011;58893;53.130;8.158;2023-01-31T00:42:38;7.37;;;1.73;;
71187;SDS011;58893;53.130;8.158;2023-01-31T00:45:04;18.33;;;1.70;;
71187;SDS011;58893;53.130;8.158;2023-01-31T00:47:31;17.33;;;2.80;;
71187;SDS011;58893;53.130;8.158;2023-01-31T00:49:56;5.80;;;2.13;;
71187;SDS011;58893;53.130;8.158;2023-01-31T00:52:22;15.87;;;2.27;;
71187;SDS011;58893;53.130;8.158;2023-01-31T00:54:48;9.13;;;2.43;;
71187;SDS011;58893;53.130;8.158;2023-01-31T00:57:13;15.83;;;2.20;;
71187;SDS011;58893;53.130;8.158;2023-01-31T00:59:39;10.60;;;2.20;;
71187;SDS011;58893;53.130;8.158;2023-01-31T01:02:04;12.77;;;1.10;;
71187;SDS011;58893;53.130;8.158;2023-01-31T01:04:30;11.17;;;3.03;;
71187;SDS011;58893;53.130;8.158;2023-01-31T01:06:55;6.70;;;1.67;;
71187;SDS011;58893;53.130;8.158;2023-01-31T01:09:21;10.93;;;3.40;;
71187;SDS011;58893;53.130;8.158;2023-01-31T01:11:47;8.33;;;2.60;;
71187;SDS011;58893;53.130;8.158;2023-01-31T01:14:13;4.80;;;1.50;;
71187;SDS011;58893;53.130;8.158;2023-01-31T01:16:39;12.50;;;1.60;;
71187;SDS011;58893;53.130;8.158;2023-01-31T01:19:05;15.00;;;1.80;;
71187;SDS011;58893;53.130;8.158;2023-01-31T01:21:37;12.27;;;1.83;;
71187;SDS011;58893;53.130;8.158;2023-01-31T01:24:05;18.67;;;2.50;;
71187;SDS011;58893;53.130;8.158;2023-01-31T01:26:32;19.30;;;2.10;;
71187;SDS011;58893;53.130;8.158;2023-01-31T01:28:59;22.87;;;3.00;;
71187;SDS011;58893;53.130;8.158;2023-01-31T01:31:26;8.63;;;2.23;;
71187;SDS011;58893;53.130;8.158;2023-01-31T01:33:59;16.57;;;2.60;;
71187;SDS011;58893;53.130;8.158;2023-01-31T01:36:26;14.77;;;2.30;;
71187;SDS011;58893;53.130;8.158;2023-01-31T01:38:52;13.50;;;1.90;;
71187;SDS011;58893;53.130;8.158;2023-01-31T01:41:18;18.83;;;2.00;;
71187;SDS011;58893;53.130;8.158;2023-01-31T01:43:46;32.33;;;3.00;;
71187;SDS011;58893;53.130;8.158;2023-01-31T01:51:35;9.70;;;2.10;;
71187;SDS011;58893;53.130;8.158;2023-01-31T01:54:04;23.07;;;2.97;;
71187;SDS011;58893;53.130;8.158;2023-01-31T01:56:35;6.30;;;1.80;;
71187;SDS011;58893;53.130;8.158;2023-01-31T01:59:05;18.30;;;1.80;;
71187;SDS011;58893;53.130;8.158;2023-01-31T02:01:36;18.00;;;1.80;;
71187;SDS011;58893;53.130;8.158;2023-01-31T02:04:06;13.00;;;2.00;;
71187;SDS011;58893;53.130;8.158;2023-01-31T02:06:38;20.50;;;2.97;;
71187;SDS011;58893;53.130;8.158;2023-01-31T02:09:05;25.43;;;4.20;;
71187;SDS011;58893;53.130;8.158;2023-01-31T02:11:33;10.77;;;1.83;;
71187;SDS011;58893;53.130;8.158;2023-01-31T02:14:00;9.00;;;2.40;;
71187;SDS011;58893;53.130;8.158;2023-01-31T02:16:29;21.57;;;1.70;;
71187;SDS011;58893;53.130;8.158;2023-01-31T02:18:54;19.20;;;1.80;;
71187;SDS011;58893;53.130;8.158;2023-01-31T02:21:57;17.33;;;2.37;;
71187;SDS011;58893;53.130;8.158;2023-01-31T02:24:46;7.37;;;2.13;;
71187;SDS011;58893;53.130;8.158;2023-01-31T02:33:03;8.97;;;2.30;;
71187;SDS011;58893;53.130;8.158;2023-01-31T02:38:51;15.67;;;2.20;;
71187;SDS011;58893;53.130;8.158;2023-01-31T02:41:31;12.70;;;1.63;;
71187;SDS011;58893;53.130;8.158;2023-01-31T02:49:52;11.23;;;1.70;;
71187;SDS011;58893;53.130;8.158;2023-01-31T02:55:09;7.97;;;1.70;;
71187;SDS011;58893;53.130;8.158;2023-01-31T02:57:56;12.80;;;2.23;;
71187;SDS011;58893;53.130;8.158;2023-01-31T03:00:24;20.13;;;1.97;;
71187;SDS011;58893;53.130;8.158;2023-01-31T03:02:51;11.70;;;1.97;;
71187;SDS011;58893;53.130;8.158;2023-01-31T03:05:17;22.60;;;2.73;;
71187;SDS011;58893;53.130;8.158;2023-01-31T03:07:47;34.13;;;2.23;;
71187;SDS011;58893;53.130;8.158;2023-01-31T03:18:53;12.87;;;2.07;;
71187;SDS011;58893;53.130;8.158;2023-01-31T03:22:04;4.67;;;1.40;;
71187;SDS011;58893;53.130;8.158;2023-01-31T03:24:31;22.67;;;2.30;;
71187;SDS011;58893;53.130;8.158;2023-01-31T03:26:59;21.00;;;1.80;;
71187;SDS011;58893;53.130;8.158;2023-01-31T03:29:28;9.20;;;1.40;;
71187;SDS011;58893;53.130;8.158;2023-01-31T03:32:03;17.03;;;1.70;;
71187;SDS011;58893;53.130;8.158;2023-01-31T03:34:38;13.37;;;1.20;;
71187;SDS011;58893;53.130;8.158;2023-01-31T03:43:01;7.87;;;1.30;;
71187;SDS011;58893;53.130;8.158;2023-01-31T03:45:50;8.20;;;1.33;;
71187;SDS011;58893;53.130;8.158;2023-01-31T03:48:21;5.10;;;2.17;;
71187;SDS011;58893;53.130;8.158;2023-01-31T03:50:54;6.23;;;1.00;;
71187;SDS011;58893;53.130;8.158;2023-01-31T03:53:28;4.33;;;1.40;;
71187;SDS011;58893;53.130;8.158;2023-01-31T03:56:16;4.00;;;1.60;;
71187;SDS011;58893;53.130;8.158;2023-01-31T03:58:59;7.40;;;1.07;;
71187;SDS011;58893;53.130;8.158;2023-01-31T04:01:29;9.83;;;1.70;;
71187;SDS011;58893;53.130;8.158;2023-01-31T04:04:19;12.40;;;1.50;;
71187;SDS011;58893;53.130;8.158;2023-01-31T04:06:49;9.13;;;1.13;;
71187;SDS011;58893;53.130;8.158;2023-01-31T04:09:15;8.80;;;2.10;;
71187;SDS011;58893;53.130;8.158;2023-01-31T04:11:41;8.50;;;1.80;;
71187;SDS011;58893;53.130;8.158;2023-01-31T04:14:11;12.93;;;1.60;;
71187;SDS011;58893;53.130;8.158;2023-01-31T04:16:36;9.80;;;1.57;;
71187;SDS011;58893;53.130;8.158;2023-01-31T04:19:02;7.83;;;2.00;;
71187;SDS011;58893;53.130;8.158;2023-01-31T04:21:28;22.63;;;2.10;;
71187;SDS011;58893;53.130;8.158;2023-01-31T04:23:53;11.53;;;1.30;;
71187;SDS011;58893;53.130;8.158;2023-01-31T04:26:19;9.17;;;1.30;;
71187;SDS011;58893;53.130;8.158;2023-01-31T04:28:45;19.87;;;1.93;;
71187;SDS011;58893;53.130;8.158;2023-01-31T04:31:10;10.87;;;1.60;;
71187;SDS011;58893;53.130;8.158;2023-01-31T04:33:36;9.80;;;1.43;;
71187;SDS011;58893;53.130;8.158;2023-01-31T04:36:01;5.83;;;1.60;;
71187;SDS011;58893;53.130;8.158;2023-01-31T04:38:27;11.17;;;1.57;;
71187;SDS011;58893;53.130;8.158;2023-01-31T04:40:53;9.93;;;1.57;;
71187;SDS011;58893;53.130;8.158;2023-01-31T04:43:18;7.70;;;1.30;;
71187;SDS011;58893;53.130;8.158;2023-01-31T04:45:44;20.37;;;2.13;;
71187;SDS011;58893;53.130;8.158;2023-01-31T04:48:10;7.80;;;1.40;;
71187;SDS011;58893;53.130;8.158;2023-01-31T04:50:35;17.33;;;1.80;;
71187;SDS011;58893;53.130;8.158;2023-01-31T04:53:01;11.93;;;1.37;;
71187;SDS011;58893;53.130;8.158;2023-01-31T04:55:27;8.33;;;2.00;;
71187;SDS011;58893;53.130;8.158;2023-01-31T04:57:52;13.37;;;1.50;;
71187;SDS011;58893;53.130;8.158;2023-01-31T05:00:18;17.20;;;1.33;;
71187;SDS011;58893;53.130;8.158;2023-01-31T05:02:44;6.67;;;1.47;;
71187;SDS011;58893;53.130;8.158;2023-01-31T05:05:10;9.90;;;1.43;;
71187;SDS011;58893;53.130;8.158;2023-01-31T05:07:39;5.70;;;1.13;;
71187;SDS011;58893;53.130;8.158;2023-01-31T05:10:05;16.93;;;1.83;;
71187;SDS011;58893;53.130;8.158;2023-01-31T05:12:31;16.63;;;1.50;;
71187;SDS011;58893;53.130;8.158;2023-01-31T05:14:57;5.80;;;1.30;;
71187;SDS011;58893;53.130;8.158;2023-01-31T05:17:22;8.73;;;1.37;;
71187;SDS011;58893;53.130;8.158;2023-01-31T05:19:54;8.23;;;1.60;;
71187;SDS011;58893;53.130;8.158;2023-01-31T05:22:20;11.40;;;2.10;;
71187;SDS011;58893;53.130;8.158;2023-01-31T05:24:46;5.03;;;1.13;;
71187;SDS011;58893;53.130;8.158;2023-01-31T05:27:13;3.57;;;1.47;;
71187;SDS011;58893;53.130;8.158;2023-01-31T05:29:39;15.10;;;1.20;;
71187;SDS011;58893;53.130;8.158;2023-01-31T05:32:05;8.80;;;1.20;;
71187;SDS011;58893;53.130;8.158;2023-01-31T05:34:31;11.73;;;1.77;;
71187;SDS011;58893;53.130;8.158;2023-01-31T05:36:57;5.57;;;1.23;;
71187;SDS011;58893;53.130;8.158;2023-01-31T05:39:23;11.40;;;2.63;;
71187;SDS011;58893;53.130;8.158;2023-01-31T05:41:49;7.23;;;1.70;;
71187;SDS011;58893;53.130;8.158;2023-01-31T05:44:16;8.20;;;1.67;;
71187;SDS011;58893;53.130;8.158;2023-01-31T05:46:43;7.93;;;1.40;;
71187;SDS011;58893;53.130;8.158;2023-01-31T05:49:09;6.27;;;2.00;;
71187;SDS011;58893;53.130;8.158;2023-01-31T05:51:35;13.80;;;2.43;;
71187;SDS011;58893;53.130;8.158;2023-01-31T05:54:01;9.27;;;1.63;;
71187;SDS011;58893;53.130;8.158;2023-01-31T05:56:26;3.70;;;1.30;;
71187;SDS011;58893;53.130;8.158;2023-01-31T05:58:52;7.77;;;1.90;;
71187;SDS011;58893;53.130;8.158;2023-01-31T06:01:18;3.77;;;1.47;;
71187;SDS011;58893;53.130;8.158;2023-01-31T06:03:45;8.00;;;1.70;;
71187;SDS011;58893;53.130;8.158;2023-01-31T06:06:11;10.13;;;2.57;;
71187;SDS011;58893;53.130;8.158;2023-01-31T06:08:37;8.50;;;2.50;;
71187;SDS011;58893;53.130;8.158;2023-01-31T06:11:03;15.40;;;2.30;;
71187;SDS011;58893;53.130;8.158;2023-01-31T06:13:29;19.90;;;2.33;;
71187;SDS011;58893;53.130;8.158;2023-01-31T06:15:55;8.43;;;1.53;;
71187;SDS011;58893;53.130;8.158;2023-01-31T06:18:21;11.43;;;2.43;;
71187;SDS011;58893;53.130;8.158;2023-01-31T06:20:47;8.30;;;1.93;;
71187;SDS011;58893;53.130;8.158;2023-01-31T06:23:13;10.30;;;2.30;;
71187;SDS011;58893;53.130;8.158;2023-01-31T06:25:38;23.13;;;2.70;;
71187;SDS011;58893;53.130;8.158;2023-01-31T06:28:04;15.90;;;3.00;;
71187;SDS011;58893;53.130;8.158;2023-01-31T06:30:30;17.27;;;2.73;;
71187;SDS011;58893;53.130;8.158;2023-01-31T06:32:57;10.87;;;3.50;;
71187;SDS011;58893;53.130;8.158;2023-01-31T06:35:24;27.43;;;3.00;;
71187;SDS011;58893;53.130;8.158;2023-01-31T06:37:50;16.10;;;3.33;;
71187;SDS011;58893;53.130;8.158;2023-01-31T06:40:15;10.07;;;2.90;;
71187;SDS011;58893;53.130;8.158;2023-01-31T06:42:41;15.20;;;4.07;;
71187;SDS011;58893;53.130;8.158;2023-01-31T06:45:07;11.00;;;2.73;;
71187;SDS011;58893;53.130;8.158;2023-01-31T06:47:33;23.30;;;3.50;;
71187;SDS011;58893;53.130;8.158;2023-01-31T06:49:59;9.20;;;3.60;;
71187;SDS011;58893;53.130;8.158;2023-01-31T06:52:24;18.40;;;3.40;;
71187;SDS011;58893;53.130;8.158;2023-01-31T06:54:50;7.17;;;2.30;;
71187;SDS011;58893;53.130;8.158;2023-01-31T06:57:15;7.53;;;2.30;;
71187;SDS011;58893;53.130;8.158;2023-01-31T06:59:41;22.13;;;3.47;;
71187;SDS011;58893;53.130;8.158;2023-01-31T07:02:08;8.63;;;2.50;;
71187;SDS011;58893;53.130;8.158;2023-01-31T07:04:35;26.90;;;3.47;;
71187;SDS011;58893;53.130;8.158;2023-01-31T07:07:00;15.23;;;2.90;;
71187;SDS011;58893;53.130;8.158;2023-01-31T07:09:26;13.20;;;2.80;;
71187;SDS011;58893;53.130;8.158;2023-01-31T07:11:52;14.03;;;2.57;;
71187;SDS011;58893;53.130;8.158;2023-01-31T07:14:18;24.33;;;3.43;;
71187;SDS011;58893;53.130;8.158;2023-01-31T07:16:43;23.30;;;3.20;;
71187;SDS011;58893;53.130;8.158;2023-01-31T07:19:09;12.83;;;3.13;;
71187;SDS011;58893;53.130;8.158;2023-01-31T07:21:34;14.67;;;3.10;;
71187;SDS011;58893;53.130;8.158;2023-01-31T07:24:01;24.20;;;2.70;;
71187;SDS011;58893;53.130;8.158;2023-01-31T07:26:27;11.90;;;3.33;;
71187;SDS011;58893;53.130;8.158;2023-01-31T07:28:53;13.63;;;2.90;;
71187;SDS011;58893;53.130;8.158;2023-01-31T07:31:19;15.70;;;3.07;;
71187;SDS011;58893;53.130;8.158;2023-01-31T07:33:44;9.67;;;2.70;;
71187;SDS011;58893;53.130;8.158;2023-01-31T07:36:11;24.20;;;4.17;;
71187;SDS011;58893;53.130;8.158;2023-01-31T07:38:38;24.20;;;3.33;;
71187;SDS011;58893;53.130;8.158;2023-01-31T07:41:05;19.53;;;3.80;;
71187;SDS011;58893;53.130;8.158;2023-01-31T07:43:32;11.60;;;2.90;;
71187;SDS011;58893;53.130;8.158;2023-01-31T07:45:58;11.33;;;3.80;;
71187;SDS011;58893;53.130;8.158;2023-01-31T07:48:23;12.23;;;4.30;;
71187;SDS011;58893;53.130;8.158;2023-01-31T07:50:50;16.43;;;5.33;;
71187;SDS011;58893;53.130;8.158;2023-01-31T07:53:17;9.73;;;3.10;;
71187;SDS011;58893;53.130;8.158;2023-01-31T07:55:43;23.10;;;4.23;;
71187;SDS011;58893;53.130;8.158;2023-01-31T07:58:15;17.33;;;3.90;;
71187;SDS011;58893;53.130;8.158;2023-01-31T08:00:41;10.00;;;3.60;;
71187;SDS011;58893;53.130;8.158;2023-01-31T08:03:26;12.73;;;3.47;;
71187;SDS011;58893;53.130;8.158;2023-01-31T08:08:26;15.87;;;4.47;;
71187;SDS011;58893;53.130;8.158;2023-01-31T08:10:51;13.97;;;4.07;;
71187;SDS011;58893;53.130;8.158;2023-01-31T08:13:17;9.00;;;4.40;;
71187;SDS011;58893;53.130;8.158;2023-01-31T08:15:42;14.80;;;4.03;;
71187;SDS011;58893;53.130;8.158;2023-01-31T08:18:08;18.07;;;4.70;;
71187;SDS011;58893;53.130;8.158;2023-01-31T08:20:33;24.20;;;3.90;;
71187;SDS011;58893;53.130;8.158;2023-01-31T08:23:01;8.10;;;3.50;;
71187;SDS011;58893;53.130;8.158;2023-01-31T08:25:27;22.07;;;5.17;;
71187;SDS011;58893;53.130;8.158;2023-01-31T08:27:55;11.20;;;4.27;;
71187;SDS011;58893;53.130;8.158;2023-01-31T08:30:21;18.20;;;4.83;;
71187;SDS011;58893;53.130;8.158;2023-01-31T08:32:47;27.90;;;4.73;;
71187;SDS011;58893;53.130;8.158;2023-01-31T08:35:13;14.93;;;4.43;;
71187;SDS011;58893;53.130;8.158;2023-01-31T08:37:39;20.20;;;3.70;;
71187;SDS011;58893;53.130;8.158;2023-01-31T08:40:04;13.67;;;3.80;;
71187;SDS011;58893;53.130;8.158;2023-01-31T08:42:31;11.70;;;3.87;;
71187;SDS011;58893;53.130;8.158;2023-01-31T08:44:56;23.63;;;4.70;;
71187;SDS011;58893;53.130;8.158;2023-01-31T08:47:22;14.30;;;4.90;;
71187;SDS011;58893;53.130;8.158;2023-01-31T08:49:47;14.17;;;4.30;;
71187;SDS011;58893;53.130;8.158;2023-01-31T08:52:13;20.20;;;3.93;;
71187;SDS011;58893;53.130;8.158;2023-01-31T08:54:39;15.13;;;4.80;;
71187;SDS011;58893;53.130;8.158;2023-01-31T08:57:04;12.37;;;5.30;;
71187;SDS011;58893;53.130;8.158;2023-01-31T08:59:30;18.23;;;4.07;;
71187;SDS011;58893;53.130;8.158;2023-01-31T09:01:55;8.30;;;3.87;;
71187;SDS011;58893;53.130;8.158;2023-01-31T09:04:21;27.00;;;4.70;;
71187;SDS011;58893;53.130;8.158;2023-01-31T09:06:47;19.20;;;4.77;;
71187;SDS011;58893;53.130;8.158;2023-01-31T09:09:13;11.63;;;4.50;;
71187;SDS011;58893;53.130;8.158;2023-01-31T09:11:39;15.40;;;3.77;;
71187;SDS011;58893;53.130;8.158;2023-01-31T09:14:04;17.83;;;3.40;;
71187;SDS011;58893;53.130;8.158;2023-01-31T09:16:30;9.93;;;4.07;;
71187;SDS011;58893;53.130;8.158;2023-01-31T09:18:56;13.70;;;4.20;;
71187;SDS011;58893;53.130;8.158;2023-01-31T09:21:22;20.37;;;4.20;;
71187;SDS011;58893;53.130;8.158;2023-01-31T09:23:48;9.37;;;3.47;;
71187;SDS011;58893;53.130;8.158;2023-01-31T09:26:19;11.53;;;3.70;;
71187;SDS011;58893;53.130;8.158;2023-01-31T09:28:45;16.97;;;4.33;;
71187;SDS011;58893;53.130;8.158;2023-01-31T09:31:12;18.40;;;4.17;;
71187;SDS011;58893;53.130;8.158;2023-01-31T09:33:39;21.50;;;3.90;;
71187;SDS011;58893;53.130;8.158;2023-01-31T09:36:06;12.40;;;3.63;;
71187;SDS011;58893;53.130;8.158;2023-01-31T09:38:33;15.47;;;3.73;;
71187;SDS011;58893;53.130;8.158;2023-01-31T09:41:01;12.00;;;3.30;;
71187;SDS011;58893;53.130;8.158;2023-01-31T09:43:31;16.53;;;3.87;;
71187;SDS011;58893;53.130;8.158;2023-01-31T09:46:01;16.10;;;3.57;;
71187;SDS011;58893;53.130;8.158;2023-01-31T09:48:32;10.20;;;3.37;;
71187;SDS011;58893;53.130;8.158;2023-01-31T09:51:01;7.43;;;3.03;;
71187;SDS011;58893;53.130;8.158;2023-01-31T09:53:29;13.60;;;2.90;;
71187;SDS011;58893;53.130;8.158;2023-01-31T10:01:31;13.33;;;3.10;;
71187;SDS011;58893;53.130;8.158;2023-01-31T10:06:44;8.90;;;2.93;;
71187;SDS011;58893;53.130;8.158;2023-01-31T10:12:29;9.57;;;3.10;;
71187;SDS011;58893;53.130;8.158;2023-01-31T10:15:01;18.77;;;3.50;;
71187;SDS011;58893;53.130;8.158;2023-01-31T10:17:37;16.60;;;3.30;;
71187;SDS011;58893;53.130;8.158;2023-01-31T10:25:22;11.40;;;2.90;;
71187;SDS011;58893;53.130;8.158;2023-01-31T10:28:00;8.33;;;3.47;;
71187;SDS011;58893;53.130;8.158;2023-01-31T10:36:04;10.50;;;2.57;;
71187;SDS011;58893;53.130;8.158;2023-01-31T10:44:23;19.27;;;3.50;;
71187;SDS011;58893;53.130;8.158;2023-01-31T10:47:12;5.60;;;3.60;;
71187;SDS011;58893;53.130;8.158;2023-01-31T10:49:43;11.30;;;2.60;;
71187;SDS011;58893;53.130;8.158;2023-01-31T10:52:36;19.33;;;3.17;;
71187;SDS011;58893;53.130;8.158;2023-01-31T10:55:18;23.00;;;3.30;;
71187;SDS011;58893;53.130;8.158;2023-01-31T10:57:58;9.93;;;3.80;;
71187;SDS011;58893;53.130;8.158;2023-01-31T11:00:28;20.37;;;2.70;;
71187;SDS011;58893;53.130;8.158;2023-01-31T11:02:57;7.97;;;2.77;;
71187;SDS011;58893;53.130;8.158;2023-01-31T11:05:23;8.17;;;3.00;;
71187;SDS011;58893;53.130;8.158;2023-01-31T11:07:52;8.63;;;2.73;;
71187;SDS011;58893;53.130;8.158;2023-01-31T11:10:24;18.90;;;3.73;;
71187;SDS011;58893;53.130;8.158;2023-01-31T11:12:53;14.43;;;2.77;;
71187;SDS011;58893;53.130;8.158;2023-01-31T11:15:22;18.33;;;2.47;;
71187;SDS011;58893;53.130;8.158;2023-01-31T11:17:50;14.97;;;3.00;;
71187;SDS011;58893;53.130;8.158;2023-01-31T11:20:36;12.10;;;2.37;;
71187;SDS011;58893;53.130;8.158;2023-01-31T11:23:23;34.10;;;4.00;;
71187;SDS011;58893;53.130;8.158;2023-01-31T11:25:50;7.87;;;2.93;;
71187;SDS011;58893;53.130;8.158;2023-01-31T11:28:22;9.30;;;2.60;;
71187;SDS011;58893;53.130;8.158;2023-01-31T11:31:03;10.90;;;2.37;;
71187;SDS011;58893;53.130;8.158;2023-01-31T11:36:10;8.23;;;2.27;;
71187;SDS011;58893;53.130;8.158;2023-01-31T11:38:40;6.33;;;2.40;;
71187;SDS011;58893;53.130;8.158;2023-01-31T11:44:09;4.70;;;2.00;;
71187;SDS011;58893;53.130;8.158;2023-01-31T11:46:59;8.37;;;2.37;;
71187;SDS011;58893;53.130;8.158;2023-01-31T11:49:31;4.63;;;2.10;;
71187;SDS011;58893;53.130;8.158;2023-01-31T11:54:59;7.23;;;2.00;;
71187;SDS011;58893;53.130;8.158;2023-01-31T11:57:36;9.37;;;1.53;;
71187;SDS011;58893;53.130;8.158;2023-01-31T12:00:25;5.50;;;2.17;;
71187;SDS011;58893;53.130;8.158;2023-01-31T12:03:01;7.90;;;1.63;;
71187;SDS011;58893;53.130;8.158;2023-01-31T12:05:32;2.23;;;1.37;;
71187;SDS011;58893;53.130;8.158;2023-01-31T12:08:01;6.77;;;2.10;;
71187;SDS011;58893;53.130;8.158;2023-01-31T12:13:11;2.20;;;1.57;;
71187;SDS011;58893;53.130;8.158;2023-01-31T12:15:45;7.40;;;1.77;;
71187;SDS011;58893;53.130;8.158;2023-01-31T12:18:25;5.20;;;1.90;;
71187;SDS011;58893;53.130;8.158;2023-01-31T12:21:16;5.93;;;1.53;;
71187;SDS011;58893;53.130;8.158;2023-01-31T12:43:04;3.37;;;1.50;;
71187;SDS011;58893;53.130;8.158;2023-01-31T13:07:24;2.30;;;0.90;;
71187;SDS011;58893;53.130;8.158;2023-01-31T13:09:58;6.80;;;1.40;;
71187;SDS011;58893;53.130;8.158;2023-01-31T13:12:29;3.00;;;1.30;;
71187;SDS011;58893;53.130;8.158;2023-01-31T13:17:30;1.77;;;1.30;;
71187;SDS011;58893;53.130;8.158;2023-01-31T13:20:06;4.17;;;1.60;;
71187;SDS011;58893;53.130;8.158;2023-01-31T13:22:53;2.70;;;1.17;;
71187;SDS011;58893;53.130;8.158;2023-01-31T13:30:30;3.27;;;1.20;;
71187;SDS011;58893;53.130;8.158;2023-01-31T13:32:57;2.67;;;1.50;;
71187;SDS011;58893;53.130;8.158;2023-01-31T13:35:27;3.40;;;1.70;;
71187;SDS011;58893;53.130;8.158;2023-01-31T13:37:59;6.70;;;2.10;;
71187;SDS011;58893;53.130;8.158;2023-01-31T13:43:33;3.33;;;1.93;;
71187;SDS011;58893;53.130;8.158;2023-01-31T13:46:03;4.43;;;1.60;;
71187;SDS011;58893;53.130;8.158;2023-01-31T13:48:33;2.77;;;1.27;;
71187;SDS011;58893;53.130;8.158;2023-01-31T13:51:18;10.20;;;2.23;;
71187;SDS011;58893;53.130;8.158;2023-01-31T13:54:34;10.07;;;2.93;;
71187;SDS011;58893;53.130;8.158;2023-01-31T13:57:04;6.23;;;1.70;;
71187;SDS011;58893;53.130;8.158;2023-01-31T13:59:32;14.60;;;2.20;;
71187;SDS011;58893;53.130;8.158;2023-01-31T14:02:02;18.20;;;2.73;;
71187;SDS011;58893;53.130;8.158;2023-01-31T14:04:33;7.80;;;2.60;;
71187;SDS011;58893;53.130;8.158;2023-01-31T14:12:25;11.33;;;2.50;;
71187;SDS011;58893;53.130;8.158;2023-01-31T14:14:47;9.17;;;2.17;;
71187;SDS011;58893;53.130;8.158;2023-01-31T14:37:45;20.77;;;2.43;;
71187;SDS011;58893;53.130;8.158;2023-01-31T14:46:27;9.97;;;2.17;;
71187;SDS011;58893;53.130;8.158;2023-01-31T14:51:53;12.93;;;2.80;;
71187;SDS011;58893;53.130;8.158;2023-01-31T14:54:51;22.73;;;2.33;;
71187;SDS011;58893;53.130;8.158;2023-01-31T14:57:57;18.43;;;1.87;;
71187;SDS011;58893;53.130;8.158;2023-01-31T15:03:15;9.07;;;2.17;;
71187;SDS011;58893;53.130;8.158;2023-01-31T15:05:43;6.50;;;1.80;;
71187;SDS011;58893;53.130;8.158;2023-01-31T15:13:41;6.80;;;1.60;;
71187;SDS011;58893;53.130;8.158;2023-01-31T15:16:27;15.70;;;2.57;;
71187;SDS011;58893;53.130;8.158;2023-01-31T15:18:58;3.37;;;1.57;;
71187;SDS011;58893;53.130;8.158;2023-01-31T15:21:32;7.73;;;2.50;;
71187;SDS011;58893;53.130;8.158;2023-01-31T15:24:02;14.17;;;2.60;;
71187;SDS011;58893;53.130;8.158;2023-01-31T15:26:30;11.80;;;1.90;;
71187;SDS011;58893;53.130;8.158;2023-01-31T15:28:59;10.67;;;1.40;;
71187;SDS011;58893;53.130;8.158;2023-01-31T15:31:28;15.63;;;2.47;;
71187;SDS011;58893;53.130;8.158;2023-01-31T15:34:03;11.47;;;2.27;;
71187;SDS011;58893;53.130;8.158;2023-01-31T15:36:42;13.97;;;2.10;;
71187;SDS011;58893;53.130;8.158;2023-01-31T15:39:17;14.33;;;2.47;;
71187;SDS011;58893;53.130;8.158;2023-01-31T15:41:47;7.30;;;2.10;;
71187;SDS011;58893;53.130;8.158;2023-01-31T15:44:22;12.87;;;1.90;;
71187;SDS011;58893;53.130;8.158;2023-01-31T15:46:50;6.43;;;2.43;;
71187;SDS011;58893;53.130;8.158;2023-01-31T15:55:05;16.60;;;2.73;;
71187;SDS011;58893;53.130;8.158;2023-01-31T15:57:41;9.97;;;2.80;;
71187;SDS011;58893;53.130;8.158;2023-01-31T16:00:47;19.17;;;2.83;;
71187;SDS011;58893;53.130;8.158;2023-01-31T16:03:05;8.70;;;1.80;;
71187;SDS011;58893;53.130;8.158;2023-01-31T16:05:35;20.10;;;1.80;;
71187;SDS011;58893;53.130;8.158;2023-01-31T16:08:03;15.77;;;2.80;;
71187;SDS011;58893;53.130;8.158;2023-01-31T16:10:39;10.60;;;2.40;;
71187;SDS011;58893;53.130;8.158;2023-01-31T16:13:07;8.07;;;1.90;;
71187;SDS011;58893;53.130;8.158;2023-01-31T16:15:33;10.40;;;2.47;;
71187;SDS011;58893;53.130;8.158;2023-01-31T16:18:01;5.10;;;1.70;;
71187;SDS011;58893;53.130;8.158;2023-01-31T16:28:22;12.37;;;2.60;;
71187;SDS011;58893;53.130;8.158;2023-01-31T16:30:49;10.77;;;2.00;;
71187;SDS011;58893;53.130;8.158;2023-01-31T16:33:16;6.40;;;2.10;;
71187;SDS011;58893;53.130;8.158;2023-01-31T16:35:45;39.63;;;3.90;;
71187;SDS011;58893;53.130;8.158;2023-01-31T16:38:17;7.00;;;1.80;;
71187;SDS011;58893;53.130;8.158;2023-01-31T16:40:51;11.40;;;2.00;;
71187;SDS011;58893;53.130;8.158;2023-01-31T16:43:20;16.90;;;3.10;;
71187;SDS011;58893;53.130;8.158;2023-01-31T16:45:51;13.43;;;2.33;;
71187;SDS011;58893;53.130;8.158;2023-01-31T16:50:58;20.20;;;2.97;;
71187;SDS011;58893;53.130;8.158;2023-01-31T16:53:43;10.70;;;3.00;;
71187;SDS011;58893;53.130;8.158;2023-01-31T16:56:18;13.53;;;1.97;;
71187;SDS011;58893;53.130;8.158;2023-01-31T16:58:55;14.97;;;1.83;;
71187;SDS011;58893;53.130;8.158;2023-01-31T17:01:26;7.90;;;2.23;;
71187;SDS011;58893;53.130;8.158;2023-01-31T17:06:41;12.53;;;2.27;;
71187;SDS011;58893;53.130;8.158;2023-01-31T17:09:12;6.43;;;1.70;;
71187;SDS011;58893;53.130;8.158;2023-01-31T17:11:42;16.10;;;3.37;;
71187;SDS011;58893;53.130;8.158;2023-01-31T17:14:10;6.90;;;2.03;;
71187;SDS011;58893;53.130;8.158;2023-01-31T17:16:36;35.07;;;2.67;;
71187;SDS011;58893;53.130;8.158;2023-01-31T17:19:02;25.50;;;2.77;;
71187;SDS011;58893;53.130;8.158;2023-01-31T17:21:28;5.83;;;1.80;;
71187;SDS011;58893;53.130;8.158;2023-01-31T17:23:58;16.80;;;2.67;;
71187;SDS011;58893;53.130;8.158;2023-01-31T17:26:24;12.03;;;2.67;;
71187;SDS011;58893;53.130;8.158;2023-01-31T17:28:50;23.93;;;4.47;;
71187;SDS011;58893;53.130;8.158;2023-01-31T17:31:17;14.93;;;3.07;;
71187;SDS011;58893;53.130;8.158;2023-01-31T17:33:44;12.07;;;2.73;;
71187;SDS011;58893;53.130;8.158;2023-01-31T17:36:11;28.93;;;3.40;;
71187;SDS011;58893;53.130;8.158;2023-01-31T17:38:37;19.17;;;2.70;;
71187;SDS011;58893;53.130;8.158;2023-01-31T17:41:03;29.47;;;4.10;;
71187;SDS011;58893;53.130;8.158;2023-01-31T17:43:29;16.80;;;3.53;;
71187;SDS011;58893;53.130;8.158;2023-01-31T17:45:54;16.00;;;3.37;;
71187;SDS011;58893;53.130;8.158;2023-01-31T17:48:20;16.83;;;2.60;;
71187;SDS011;58893;53.130;8.158;2023-01-31T17:50:46;15.20;;;3.00;;
71187;SDS011;58893;53.130;8.158;2023-01-31T17:53:12;16.93;;;3.20;;
71187;SDS011;58893;53.130;8.158;2023-01-31T17:55:38;22.53;;;4.10;;
71187;SDS011;58893;53.130;8.158;2023-01-31T17:58:03;24.43;;;3.70;;
71187;SDS011;58893;53.130;8.158;2023-01-31T18:00:29;12.57;;;2.20;;
71187;SDS011;58893;53.130;8.158;2023-01-31T18:02:55;17.87;;;3.07;;
71187;SDS011;58893;53.130;8.158;2023-01-31T18:05:22;35.13;;;3.90;;